Language selection

My Weather Profile Weather Topics  | 

Queen Charlotte Sound - eastern half: Past 24 Hour Conditions

 

East Dellwood - 46207

06:00 AM PDT 16 August 2022Buoy position: 50.88N 129.93W
Disclaimer

This table is a summary of hourly weather conditions for the past 24 hours.
Please note that these observations might not always be representative of weather conditions over their associated marine area.

Date / Time
(PDT)
Wind(knots) Wave height(m) Wave period(s) Pressure(kPa) Air tempC) Water tempC)
16 August 2022
6:00 SE 17 gust 21 1.3 N/A 101.5 15 16
5:00 SE 17 gust 22 1.2 7.5 101.5 15 16
4:00 SE 15 gust 17 1.1 15.1 101.5 15 16
3:00 SE 15 gust 18 1.1 7.5 101.5 15 16
2:00 SE 10 gust 13 1.2 5.1 101.5 16 15
1:00 SE 6 gust 8 1.3 5.2 101.5 15 16
0:00 S 10 gust 12 1.3 5.1 101.5 15 16
15 August 2022
23:00 S 12 gust 14 1.1 14.2 101.5 16 16
22:00 SSW 10 gust 13 1.2 14.2 101.5 16 16
21:00 S 13 gust 17 1.2 8.3 101.5 16 16
20:00 SE 12 gust 15 1.1 8.3 101.5 16 16
19:00 SSE 14 gust 17 1.3 15.1 101.5 16 16
18:00 SSE 13 gust 17 1.2 15.1 101.5 16 15
17:00 SSE 13 gust 16 1.3 15.1 101.5 16 16
16:00 SSE 16 gust 20 1.2 9.5 101.5 16 15
15:00 SE 14 gust 17 1.3 8.8 101.5 16 15
14:00 SE 13 gust 16 1.4 9.8 101.5 16 15
13:00 SE 12 gust 14 1.3 16.0 101.5 16 15
12:00 SE 10 gust 11 1.2 8.8 101.6 16 15
11:00 SE 10 gust 12 1.3 15.1 101.5 16 15
10:00 SSE 9 gust 11 1.3 9.5 101.6 15 15
9:00 SE 9 gust 10 1.3 9.5 101.6 15 15
8:00 SE 10 gust 12 1.4 6.9 101.5 15 15
7:00 SSE 8 gust 10 1.3 6.9 101.5 15 15
6:00 SSE 8 gust 10 1.3 5.1 101.5 15 15

Zoom-in to make a selection

Map of Pacific - South Coast marine weather areas South Nomad - 46036 Sentry Shoal - 46131 South Brooks - 46132 Halibut Bank - 46146 South Moresby - 46147 South Hecate Strait - 46185 West Sea Otter - 46204 La Perouse Bank - 46206 East Dellwood - 46207 Georgia Strait - 46303 English Bay - 46304 Discovery Island Esquimalt Harbour Kelp Reefs Malahat Race Rocks Lightstation Saturna Island Sheringham Point University of Victoria Victoria Gonzales Victoria Int'l Airport Ballenas Islands Campbell River Airport Comox Airport Entrance Island Fanny Island Nanaimo Airport Port Hardy Airport Sisters Islets Estevan Point Port Alberni Sartine Island Solander Island Tofino Airport Grief Point Howe Sound - Pam Rocks Powell River Airport Sechelt Squamish Airport Cape St.James Bella Bella Airport Bella Coola Airport Cathedral Point Herbert Island Point Atkinson Sand Heads Lightstation Tsawwassen Ferry Terminal Vancouver Int'l Airport Vancouver Harbour West Vancouver
Legend:
buoy Buoy
land station Land Station

Pacific - South Coast Area

Another Region

What we are doing

Features

WeatherCAN app: set custom notifications

Learn how to set custom Air Quality Health Index notifications on the WeatherCAN app

Are you prepared for summer severe weather?

We have information to help you stay safe

Date modified: